createdAt,value
2019-04-14T00:00:05.860Z,64.50
2019-04-14T00:01:05.018Z,64.50
2019-04-14T00:02:05.655Z,64.50
2019-04-14T00:03:06.975Z,64.50
2019-04-14T00:04:05.612Z,64.40
2019-04-14T00:05:06.486Z,64.40
2019-04-14T00:06:11.627Z,64.50
2019-04-14T00:07:06.214Z,64.50
2019-04-14T00:08:05.340Z,64.50
2019-04-14T00:09:06.029Z,64.50
2019-04-14T00:10:11.829Z,64.50
2019-04-14T00:11:06.542Z,64.50
2019-04-14T00:12:08.801Z,64.50
2019-04-14T00:13:06.653Z,64.50
2019-04-14T00:14:05.916Z,64.60
2019-04-14T00:15:29.112Z,64.70
2019-04-14T00:16:10.145Z,64.80
2019-04-14T00:17:06.488Z,64.80
2019-04-14T00:18:05.839Z,64.90
2019-04-14T00:19:09.021Z,64.90
2019-04-14T00:20:05.765Z,64.80
2019-04-14T00:21:06.882Z,64.70
2019-04-14T00:22:05.715Z,64.70
2019-04-14T00:23:06.952Z,64.90
2019-04-14T00:24:05.614Z,65.00
2019-04-14T00:25:09.003Z,65.10
2019-04-14T00:26:05.564Z,65.10
2019-04-14T00:27:06.742Z,65.00
2019-04-14T00:28:05.915Z,65.10
2019-04-14T00:29:05.163Z,65.10
2019-04-14T00:30:05.897Z,65.20
2019-04-14T00:31:05.129Z,65.20
2019-04-14T00:32:05.569Z,65.20
2019-04-14T00:33:06.624Z,65.20
2019-04-14T00:34:06.934Z,65.40
2019-04-14T00:35:08.579Z,65.30
2019-04-14T00:36:11.225Z,65.20
2019-04-14T00:37:10.292Z,65.30
2019-04-14T00:38:08.860Z,65.30
2019-04-14T00:39:06.060Z,65.30
2019-04-14T00:40:06.498Z,65.20
2019-04-14T00:41:05.689Z,65.30
2019-04-14T00:42:08.229Z,65.20
2019-04-14T00:43:05.499Z,65.20
2019-04-14T00:44:06.084Z,65.20
2019-04-14T00:45:05.291Z,65.20
2019-04-14T00:46:10.479Z,65.20
2019-04-14T00:47:09.231Z,65.20
2019-04-14T00:48:14.795Z,65.20
2019-04-14T00:49:05.349Z,65.20
2019-04-14T00:50:06.232Z,65.20
2019-04-14T00:51:05.525Z,65.20
2019-04-14T00:52:06.183Z,65.30
2019-04-14T00:53:05.853Z,65.40
2019-04-14T00:54:05.069Z,65.30
2019-04-14T00:55:05.806Z,65.30
2019-04-14T00:56:06.574Z,65.40
2019-04-14T00:57:05.757Z,65.40
2019-04-14T00:58:06.348Z,65.40
2019-04-14T00:59:05.529Z,65.40
2019-04-14T01:00:06.337Z,65.40
2019-04-14T01:01:05.472Z,65.40
2019-04-14T01:02:06.021Z,65.40
2019-04-14T01:03:07.661Z,65.40
2019-04-14T01:04:05.946Z,65.40
2019-04-14T01:05:08.807Z,65.40
2019-04-14T01:06:05.942Z,65.40
2019-04-14T01:07:05.065Z,65.40
2019-04-14T01:08:05.593Z,65.30
2019-04-14T01:09:06.774Z,65.30
2019-04-14T01:10:06.355Z,65.40
2019-04-14T01:11:05.638Z,65.30
2019-04-14T01:12:06.423Z,65.40
2019-04-14T01:13:11.071Z,65.50
2019-04-14T01:14:06.239Z,65.60
2019-04-14T01:15:05.365Z,65.60
2019-04-14T01:16:20.262Z,65.80
2019-04-14T01:17:07.240Z,65.70
2019-04-14T01:18:06.112Z,65.80
2019-04-14T01:19:05.183Z,65.90
2019-04-14T01:20:08.281Z,65.80
2019-04-14T01:21:05.262Z,65.80
2019-04-14T01:22:05.697Z,65.70
2019-04-14T01:23:06.723Z,65.70
2019-04-14T01:24:06.025Z,65.70
2019-04-14T01:25:06.297Z,65.60
2019-04-14T01:26:05.473Z,65.60
2019-04-14T01:27:06.410Z,65.60
2019-04-14T01:28:11.677Z,65.50
2019-04-14T01:29:08.373Z,65.50
2019-04-14T01:30:09.136Z,65.50
2019-04-14T01:31:05.974Z,65.50
2019-04-14T01:32:05.131Z,65.50
2019-04-14T01:33:05.955Z,65.50
2019-04-14T01:34:06.221Z,65.50
2019-04-14T01:35:05.715Z,65.50
2019-04-14T01:36:06.483Z,65.50
2019-04-14T01:37:05.577Z,65.50
2019-04-14T01:38:06.254Z,65.40
2019-04-14T01:39:06.646Z,65.50
2019-04-14T01:40:05.951Z,65.50
2019-04-14T01:41:08.870Z,65.60
2019-04-14T01:42:06.989Z,65.60
2019-04-14T01:43:10.605Z,65.70
2019-04-14T01:44:09.490Z,65.90
2019-04-14T01:45:06.052Z,65.90
2019-04-14T01:46:18.329Z,65.80
2019-04-14T01:47:07.063Z,65.80
2019-04-14T01:48:06.423Z,65.80
2019-04-14T01:49:05.618Z,65.90
2019-04-14T01:50:06.307Z,66.10
2019-04-14T01:51:09.147Z,66.20
2019-04-14T01:52:06.067Z,66.20
2019-04-14T01:53:05.782Z,66.40
2019-04-14T01:54:06.394Z,66.50
2019-04-14T01:55:05.490Z,66.70
2019-04-14T01:56:06.039Z,66.70
2019-04-14T01:57:05.086Z,66.80
2019-04-14T01:58:05.745Z,66.90
2019-04-14T01:59:05.443Z,67.00
2019-04-14T02:00:05.706Z,67.10
2019-04-14T02:01:06.622Z,67.10
2019-04-14T02:02:05.804Z,67.20
2019-04-14T02:03:06.103Z,67.10
2019-04-14T02:04:05.675Z,67.30
2019-04-14T02:05:10.631Z,67.40
2019-04-14T02:06:09.623Z,67.40
2019-04-14T02:07:06.266Z,67.40
2019-04-14T02:08:05.252Z,67.40
2019-04-14T02:09:05.715Z,67.40
2019-04-14T02:10:06.795Z,67.30
2019-04-14T02:11:07.091Z,67.30
2019-04-14T02:12:06.539Z,67.40
2019-04-14T02:13:05.674Z,67.40
2019-04-14T02:14:10.769Z,67.40
2019-04-14T02:15:07.284Z,67.40
2019-04-14T02:16:25.563Z,67.40
2019-04-14T02:17:08.109Z,67.30
2019-04-14T02:18:06.050Z,67.30
2019-04-14T02:19:05.207Z,67.40
2019-04-14T02:20:06.035Z,67.40
2019-04-14T02:21:08.916Z,67.30
2019-04-14T02:22:12.016Z,67.20
2019-04-14T02:23:06.418Z,67.20
2019-04-14T02:24:09.562Z,67.10
2019-04-14T02:25:06.027Z,67.10
2019-04-14T02:26:05.165Z,67.20
2019-04-14T02:27:05.942Z,67.20
2019-04-14T02:28:05.206Z,67.40
2019-04-14T02:29:06.176Z,67.50
2019-04-14T02:30:14.857Z,67.40
2019-04-14T02:31:35.417Z,67.40
2019-04-14T02:33:03.138Z,67.40
2019-04-14T02:33:44.032Z,67.60
2019-04-14T02:34:54.789Z,67.60
2019-04-14T02:36:21.137Z,67.60
2019-04-14T02:37:04.285Z,67.60
2019-04-14T02:39:13.323Z,67.70
2019-04-14T02:40:17.919Z,67.60
2019-04-14T02:41:02.171Z,67.60
2019-04-14T02:42:17.089Z,67.60
2019-04-14T02:46:01.462Z,67.40
2019-04-14T02:47:03.188Z,67.40
2019-04-14T02:49:18.248Z,67.40
2019-04-14T02:50:10.673Z,67.40
2019-04-14T02:51:55.841Z,67.30
2019-04-14T02:53:14.962Z,67.40
2019-04-14T02:54:22.389Z,67.30
2019-04-14T02:55:08.238Z,67.30
2019-04-14T02:58:00.925Z,67.60
2019-04-14T02:59:03.379Z,67.70
2019-04-14T02:59:58.294Z,67.70
2019-04-14T03:02:13.906Z,67.70
2019-04-14T03:02:56.000Z,67.70
2019-04-14T03:03:55.763Z,67.70
2019-04-14T03:06:32.878Z,67.70
2019-04-14T03:08:06.224Z,67.70
2019-04-14T03:10:00.526Z,67.70
2019-04-14T03:11:00.842Z,67.60
2019-04-14T03:12:00.309Z,67.60
2019-04-14T03:13:05.354Z,67.60
2019-04-14T03:14:06.009Z,67.70
2019-04-14T03:15:00.611Z,67.70
2019-04-14T03:17:20.904Z,67.70
2019-04-14T03:19:06.048Z,67.70
2019-04-14T03:20:13.468Z,67.70
2019-04-14T03:22:12.134Z,67.70
2019-04-14T03:23:04.737Z,67.90
2019-04-14T03:24:08.577Z,67.80
2019-04-14T03:24:46.413Z,67.90
2019-04-14T03:27:39.614Z,67.90
2019-04-14T03:28:56.065Z,68.00
2019-04-14T03:29:34.534Z,68.00
2019-04-14T03:33:47.732Z,68.20
2019-04-14T03:35:50.496Z,68.20
2019-04-14T03:37:58.846Z,68.20
2019-04-14T03:38:24.190Z,68.10
2019-04-14T03:39:14.798Z,68.10
2019-04-14T03:41:16.176Z,68.10
2019-04-14T03:42:53.663Z,68.00
2019-04-14T03:43:45.830Z,68.00
2019-04-14T03:45:03.378Z,68.00
2019-04-14T03:46:08.987Z,68.00
2019-04-14T03:47:05.056Z,68.00
2019-04-14T03:47:41.661Z,68.00
2019-04-14T03:49:31.011Z,68.00
2019-04-14T03:50:13.323Z,68.00
2019-04-14T03:51:00.153Z,68.00
2019-04-14T03:53:21.190Z,68.30
2019-04-14T03:53:57.401Z,68.00
2019-04-14T03:54:39.742Z,67.90
2019-04-14T03:55:34.661Z,68.00
2019-04-14T03:56:14.355Z,68.00
2019-04-14T03:57:06.619Z,68.00
2019-04-14T03:58:08.201Z,68.00
2019-04-14T03:59:06.743Z,68.00
2019-04-14T04:00:05.836Z,68.00
2019-04-14T04:01:06.522Z,68.00
2019-04-14T04:02:05.746Z,67.90
2019-04-14T04:03:10.983Z,67.90
2019-04-14T04:04:05.734Z,67.90
2019-04-14T04:05:06.840Z,67.90
2019-04-14T04:06:05.918Z,68.00
2019-04-14T04:07:06.612Z,68.00
2019-04-14T04:08:05.673Z,68.00
2019-04-14T04:09:08.743Z,68.20
2019-04-14T04:10:05.638Z,68.20
2019-04-14T04:11:08.792Z,68.20
2019-04-14T04:12:05.960Z,68.30
2019-04-14T04:13:06.568Z,68.30
2019-04-14T04:14:05.681Z,68.40
2019-04-14T04:15:08.756Z,68.60
2019-04-14T04:16:05.385Z,68.60
2019-04-14T04:17:06.094Z,68.50
2019-04-14T04:18:05.447Z,68.50
2019-04-14T04:19:13.551Z,68.50
2019-04-14T04:20:08.907Z,68.70
2019-04-14T04:21:05.616Z,68.70
2019-04-14T04:22:06.765Z,68.70
2019-04-14T04:23:14.509Z,68.60
2019-04-14T04:24:11.113Z,68.50
2019-04-14T04:25:05.662Z,68.50
2019-04-14T04:26:06.564Z,68.60
2019-04-14T04:27:06.824Z,68.60
2019-04-14T04:28:06.390Z,68.60
2019-04-14T04:29:05.565Z,68.60
2019-04-14T04:30:06.389Z,69.00
2019-04-14T04:31:06.636Z,69.00
2019-04-14T04:32:06.079Z,69.10
2019-04-14T04:33:05.169Z,69.10
2019-04-14T04:34:05.743Z,69.10
2019-04-14T04:35:06.900Z,69.20
2019-04-14T04:36:05.666Z,69.20
2019-04-14T04:37:06.495Z,69.20
2019-04-14T04:38:05.669Z,69.20
2019-04-14T04:39:08.662Z,69.50
2019-04-14T04:40:11.821Z,69.20
2019-04-14T04:41:06.233Z,69.30
2019-04-14T04:42:05.333Z,69.20
2019-04-14T04:43:06.247Z,69.30
2019-04-14T04:44:05.440Z,69.40
2019-04-14T04:45:08.452Z,69.40
2019-04-14T04:46:05.524Z,69.40
2019-04-14T04:47:12.731Z,69.40
2019-04-14T04:48:06.995Z,69.40
2019-04-14T04:49:16.237Z,69.40
2019-04-14T04:50:06.957Z,69.40
2019-04-14T04:51:05.427Z,69.40
2019-04-14T04:52:08.386Z,69.40
2019-04-14T04:53:09.497Z,69.30
2019-04-14T04:54:10.711Z,69.30
2019-04-14T04:55:11.557Z,69.40
2019-04-14T04:56:08.375Z,69.30
2019-04-14T04:57:06.657Z,69.20
2019-04-14T04:58:06.124Z,69.40
2019-04-14T04:59:07.925Z,69.70
2019-04-14T05:00:06.990Z,69.70
2019-04-14T05:01:06.056Z,69.60
2019-04-14T05:02:05.190Z,69.80
2019-04-14T05:03:08.266Z,69.90
2019-04-14T05:04:06.771Z,69.90
2019-04-14T05:05:05.949Z,70.00
2019-04-14T05:06:05.132Z,70.00
2019-04-14T05:07:06.009Z,70.10
2019-04-14T05:08:06.323Z,70.10
2019-04-14T05:09:06.024Z,70.10
2019-04-14T05:10:05.197Z,70.30
2019-04-14T05:11:05.982Z,70.20
2019-04-14T05:12:05.111Z,70.40
2019-04-14T05:13:07.223Z,70.40
2019-04-14T05:14:09.078Z,70.50
2019-04-14T05:15:05.709Z,70.50
2019-04-14T05:16:08.875Z,70.50
2019-04-14T05:17:06.165Z,70.50
2019-04-14T05:18:05.395Z,70.50
2019-04-14T05:19:25.618Z,70.30
2019-04-14T05:20:05.746Z,70.40
2019-04-14T05:21:06.453Z,70.40
2019-04-14T05:22:09.480Z,70.60
2019-04-14T05:23:06.360Z,70.50
2019-04-14T05:24:09.639Z,70.60
2019-04-14T05:25:06.118Z,70.60
2019-04-14T05:26:05.304Z,70.70
2019-04-14T05:27:10.523Z,70.70
2019-04-14T05:28:06.837Z,70.70
2019-04-14T05:29:06.074Z,70.70
2019-04-14T05:30:05.278Z,70.80
2019-04-14T05:31:16.785Z,71.00
2019-04-14T05:32:07.003Z,71.00
2019-04-14T05:33:10.133Z,71.00
2019-04-14T05:34:08.980Z,71.30
2019-04-14T05:35:12.302Z,71.30
2019-04-14T05:36:06.643Z,71.30
2019-04-14T05:37:06.873Z,71.20
2019-04-14T05:38:06.501Z,71.30
2019-04-14T05:39:06.728Z,71.30
2019-04-14T05:40:06.318Z,71.40
2019-04-14T05:41:20.497Z,71.40
2019-04-14T05:42:22.674Z,71.50
2019-04-14T05:43:07.063Z,71.50
2019-04-14T05:44:07.802Z,71.60
2019-04-14T05:45:06.946Z,71.60
2019-04-14T05:46:10.301Z,72.20
2019-04-14T05:47:06.887Z,72.10
2019-04-14T05:48:05.991Z,72.10
2019-04-14T05:49:08.885Z,72.20
2019-04-14T05:50:12.026Z,72.30
2019-04-14T05:51:06.786Z,72.40
2019-04-14T05:52:05.979Z,72.40
2019-04-14T05:53:08.960Z,72.70
2019-04-14T05:54:06.007Z,72.70
2019-04-14T05:55:09.119Z,72.70
2019-04-14T05:56:06.178Z,72.70
2019-04-14T05:57:09.113Z,72.80
2019-04-14T05:58:06.104Z,72.80
2019-04-14T05:59:06.599Z,72.80
2019-04-14T06:00:08.567Z,73.00
2019-04-14T06:01:09.310Z,73.10
2019-04-14T06:02:07.803Z,73.20
2019-04-14T06:03:06.356Z,73.20
2019-04-14T06:04:11.729Z,73.10
2019-04-14T06:05:08.823Z,73.10
2019-04-14T06:06:05.182Z,73.20
2019-04-14T06:07:07.838Z,73.40
2019-04-14T06:08:08.308Z,73.50
2019-04-14T06:09:07.868Z,73.60
2019-04-14T06:10:05.863Z,73.60
2019-04-14T06:11:08.505Z,73.60
2019-04-14T06:12:05.454Z,73.60
2019-04-14T06:13:05.629Z,73.70
2019-04-14T06:14:10.947Z,73.80
2019-04-14T06:15:05.944Z,73.80
2019-04-14T06:16:05.088Z,73.80
2019-04-14T06:17:05.421Z,73.80
2019-04-14T06:18:05.778Z,73.70
2019-04-14T06:19:08.448Z,73.90
2019-04-14T06:20:13.096Z,74.00
2019-04-14T06:21:05.168Z,74.00
2019-04-14T06:22:12.854Z,74.30
2019-04-14T06:23:05.863Z,74.30
2019-04-14T06:24:08.547Z,74.40
2019-04-14T06:25:08.047Z,74.40
2019-04-14T06:26:05.078Z,74.40
2019-04-14T06:27:07.868Z,74.70
2019-04-14T06:28:05.906Z,74.70
2019-04-14T06:29:05.142Z,74.80
2019-04-14T06:30:05.175Z,74.90
2019-04-14T06:31:10.334Z,74.90
2019-04-14T06:32:07.989Z,75.00
2019-04-14T06:33:06.146Z,75.00
2019-04-14T06:34:07.977Z,75.20
2019-04-14T06:35:08.577Z,75.20
2019-04-14T06:36:08.165Z,75.30
2019-04-14T06:37:07.654Z,75.40
2019-04-14T06:38:06.375Z,75.40
2019-04-14T06:39:08.161Z,75.50
2019-04-14T06:40:05.128Z,75.50
2019-04-14T06:41:07.767Z,75.50
2019-04-14T06:42:05.765Z,75.50
2019-04-14T06:43:05.985Z,75.60
2019-04-14T06:44:10.181Z,76.30
2019-04-14T06:45:05.249Z,76.30
2019-04-14T06:46:05.115Z,76.60
2019-04-14T06:47:05.358Z,76.70
2019-04-14T06:48:05.592Z,76.80
2019-04-14T06:49:05.295Z,76.80
2019-04-14T06:50:05.383Z,76.90
2019-04-14T06:51:08.054Z,77.10
2019-04-14T06:52:05.060Z,77.10
2019-04-14T06:53:07.828Z,77.20
2019-04-14T06:54:05.879Z,77.20
2019-04-14T06:55:08.493Z,77.40
2019-04-14T06:56:05.473Z,77.30
2019-04-14T06:57:08.251Z,77.50
2019-04-14T06:58:07.760Z,77.60
2019-04-14T06:59:05.824Z,77.60
2019-04-14T07:00:08.535Z,77.60
2019-04-14T07:01:05.668Z,77.60
2019-04-14T07:02:09.058Z,77.90
2019-04-14T07:03:05.187Z,77.90
2019-04-14T07:04:07.824Z,78.40
2019-04-14T07:05:06.003Z,78.40
2019-04-14T07:06:05.296Z,78.60
2019-04-14T07:07:07.970Z,78.90
2019-04-14T07:08:06.053Z,79.00
2019-04-14T07:09:05.236Z,78.80
2019-04-14T07:10:05.460Z,78.80
2019-04-14T07:11:08.254Z,78.90
2019-04-14T07:12:05.414Z,78.90
2019-04-14T07:13:08.230Z,79.40
2019-04-14T07:14:07.883Z,79.30
2019-04-14T07:15:05.903Z,79.30
2019-04-14T07:16:05.994Z,79.20
2019-04-14T07:17:12.854Z,79.20
2019-04-14T07:18:08.460Z,79.10
2019-04-14T07:19:05.518Z,79.10
2019-04-14T07:20:05.681Z,79.20
2019-04-14T07:21:05.799Z,79.30
2019-04-14T07:22:05.206Z,79.30
2019-04-14T07:23:05.381Z,79.40
2019-04-14T07:24:05.461Z,79.40
2019-04-14T07:25:05.716Z,79.40
2019-04-14T07:26:10.921Z,79.50
2019-04-14T07:27:08.475Z,79.60
2019-04-14T07:28:05.604Z,79.40
2019-04-14T07:29:05.815Z,79.60
2019-04-14T07:30:08.652Z,79.60
2019-04-14T07:31:05.715Z,79.60
2019-04-14T07:32:05.865Z,79.60
2019-04-14T07:33:07.744Z,79.70
2019-04-14T07:34:08.438Z,79.70
2019-04-14T07:35:08.014Z,79.70
2019-04-14T07:36:07.551Z,79.70
2019-04-14T07:37:08.099Z,79.70
2019-04-14T07:38:05.200Z,79.70
2019-04-14T07:39:05.312Z,79.80
2019-04-14T07:40:05.356Z,79.90
2019-04-14T07:41:05.760Z,79.80
2019-04-14T07:42:13.793Z,79.90
2019-04-14T07:43:05.788Z,79.90
2019-04-14T07:44:05.434Z,79.90
2019-04-14T07:45:08.181Z,79.90
2019-04-14T07:46:05.189Z,79.90
2019-04-14T07:47:08.080Z,79.90
2019-04-14T07:48:07.782Z,80.10
2019-04-14T07:49:05.780Z,80.10
2019-04-14T07:50:15.380Z,80.30
2019-04-14T07:51:05.492Z,80.20
2019-04-14T07:52:05.680Z,80.20
2019-04-14T07:53:05.842Z,80.30
2019-04-14T07:54:07.928Z,80.20
2019-04-14T07:55:07.586Z,80.20
2019-04-14T07:56:05.515Z,80.20
2019-04-14T07:57:05.807Z,80.20
2019-04-14T07:58:06.164Z,80.30
2019-04-14T07:59:05.370Z,80.30
2019-04-14T08:00:08.070Z,80.30
2019-04-14T08:01:07.620Z,80.40
2019-04-14T08:02:05.629Z,80.40
2019-04-14T08:03:08.366Z,80.40
2019-04-14T08:04:05.405Z,80.40
2019-04-14T08:05:08.089Z,80.40
2019-04-14T08:06:07.626Z,80.40
2019-04-14T08:07:05.735Z,80.40
2019-04-14T08:08:08.381Z,80.40
2019-04-14T08:09:05.541Z,80.40
2019-04-14T08:10:05.575Z,80.40
2019-04-14T08:11:05.598Z,80.50
2019-04-14T08:12:05.748Z,80.70
2019-04-14T08:13:05.885Z,80.60
2019-04-14T08:14:10.152Z,80.70
2019-04-14T08:15:05.512Z,80.70
2019-04-14T08:16:05.598Z,80.50
2019-04-14T08:17:05.341Z,80.40
2019-04-14T08:18:05.501Z,80.50
2019-04-14T08:19:08.302Z,80.50
2019-04-14T08:20:05.405Z,80.60
2019-04-14T08:21:08.132Z,80.50
2019-04-14T08:22:07.828Z,80.50
2019-04-14T08:23:08.496Z,80.80
2019-04-14T08:24:05.478Z,80.80
2019-04-14T08:25:08.255Z,80.90
2019-04-14T08:26:05.324Z,80.90
2019-04-14T08:27:05.547Z,80.90
2019-04-14T08:28:05.867Z,80.90
2019-04-14T08:29:05.723Z,81.00
2019-04-14T08:30:05.963Z,81.10
2019-04-14T08:31:05.111Z,29.90
2019-04-14T08:32:05.174Z,81.10
2019-04-14T08:33:05.343Z,81.10
2019-04-14T08:34:08.182Z,81.00
2019-04-14T08:35:05.279Z,81.00
2019-04-14T08:36:05.410Z,81.10
2019-04-14T08:37:08.095Z,81.10
2019-04-14T08:38:05.147Z,81.10
2019-04-14T08:39:07.877Z,81.30
2019-04-14T08:40:05.927Z,81.30
2019-04-14T08:41:05.149Z,81.20
2019-04-14T08:42:05.308Z,81.20
2019-04-14T08:43:05.455Z,81.20
2019-04-14T08:44:05.566Z,81.20
2019-04-14T08:45:05.698Z,81.40
2019-04-14T08:46:07.669Z,81.50
2019-04-14T08:47:08.309Z,81.50
2019-04-14T08:48:10.501Z,81.60
2019-04-14T08:49:05.702Z,81.60
2019-04-14T08:50:05.798Z,81.60
2019-04-14T08:51:05.321Z,81.60
2019-04-14T08:52:08.244Z,81.60
2019-04-14T08:53:05.227Z,81.60
2019-04-14T08:54:08.016Z,81.60
2019-04-14T08:55:08.559Z,81.60
2019-04-14T08:56:05.535Z,81.60
2019-04-14T08:57:08.267Z,81.70
2019-04-14T08:58:07.822Z,81.70
2019-04-14T08:59:05.805Z,81.70
2019-04-14T09:00:05.888Z,81.80
2019-04-14T09:01:05.910Z,81.80
2019-04-14T09:02:04.988Z,81.70
2019-04-14T09:03:05.347Z,81.90
2019-04-14T09:04:05.563Z,81.90
2019-04-14T09:05:05.898Z,81.90
2019-04-14T09:06:07.521Z,82.00
2019-04-14T09:07:05.436Z,82.00
2019-04-14T09:08:05.794Z,82.00
2019-04-14T09:09:07.906Z,82.10
2019-04-14T09:10:10.660Z,82.20
2019-04-14T09:11:06.016Z,82.20
2019-04-14T09:12:16.184Z,82.20
2019-04-14T09:13:10.771Z,82.30
2019-04-14T09:14:08.437Z,82.30
2019-04-14T09:15:08.087Z,82.30
2019-04-14T09:16:05.167Z,82.20
2019-04-14T09:17:08.677Z,82.30
2019-04-14T09:18:10.933Z,82.30
2019-04-14T09:19:08.386Z,82.30
2019-04-14T09:20:05.733Z,82.30
2019-04-14T09:21:08.500Z,82.30
2019-04-14T09:22:05.577Z,82.40
2019-04-14T09:23:05.803Z,82.40
2019-04-14T09:24:08.574Z,82.40
2019-04-14T09:25:05.614Z,82.40
2019-04-14T09:26:07.599Z,82.40
2019-04-14T09:27:05.673Z,82.40
2019-04-14T09:28:05.852Z,82.40
2019-04-14T09:29:05.925Z,82.60
2019-04-14T09:30:05.837Z,82.60
2019-04-14T09:31:08.699Z,82.60
2019-04-14T09:32:05.939Z,82.50
2019-04-14T09:33:05.571Z,82.50
2019-04-14T09:34:08.294Z,82.60
2019-04-14T09:35:05.317Z,82.60
2019-04-14T09:36:05.530Z,82.70
2019-04-14T09:37:05.690Z,82.90
2019-04-14T09:38:08.325Z,82.80
2019-04-14T09:39:05.438Z,82.70
2019-04-14T09:40:05.637Z,82.70
2019-04-14T09:41:05.861Z,82.70
2019-04-14T09:42:10.227Z,82.70
2019-04-14T09:43:05.277Z,82.70
2019-04-14T09:44:05.640Z,82.70
2019-04-14T09:45:05.809Z,82.80
2019-04-14T09:46:06.003Z,83.00
2019-04-14T09:47:05.140Z,83.00
2019-04-14T09:48:05.240Z,82.90
2019-04-14T09:49:05.384Z,82.90
2019-04-14T09:50:05.573Z,82.80
2019-04-14T09:51:10.813Z,82.90
2019-04-14T09:52:08.448Z,83.00
2019-04-14T09:53:07.939Z,82.80
2019-04-14T09:54:05.879Z,82.80
2019-04-14T09:55:08.697Z,82.90
2019-04-14T09:56:05.695Z,82.90
2019-04-14T09:57:05.812Z,83.00
2019-04-14T09:58:05.866Z,83.00
2019-04-14T09:59:11.107Z,83.00
2019-04-14T10:00:05.186Z,83.00
2019-04-14T10:01:15.426Z,82.90
2019-04-14T10:02:08.152Z,82.90
2019-04-14T10:03:05.425Z,82.90
2019-04-14T10:04:08.519Z,83.00
2019-04-14T10:05:08.154Z,83.00
2019-04-14T10:06:07.887Z,83.10
2019-04-14T10:07:06.006Z,83.00
2019-04-14T10:08:10.473Z,82.90
2019-04-14T10:09:05.450Z,83.00
2019-04-14T10:10:08.201Z,82.90
2019-04-14T10:11:07.807Z,83.00
2019-04-14T10:12:05.895Z,83.00
2019-04-14T10:13:05.189Z,83.00
2019-04-14T10:14:07.865Z,83.20
2019-04-14T10:15:08.301Z,83.10
2019-04-14T10:16:07.876Z,83.10
2019-04-14T10:17:05.872Z,83.10
2019-04-14T10:18:08.554Z,83.00
2019-04-14T10:19:08.053Z,83.10
2019-04-14T10:20:08.521Z,83.20
2019-04-14T10:21:19.074Z,83.30
2019-04-14T10:22:07.704Z,83.30
2019-04-14T10:23:05.766Z,83.30
2019-04-14T10:24:05.229Z,83.30
2019-04-14T10:25:05.335Z,83.20
2019-04-14T10:26:05.421Z,83.40
2019-04-14T10:27:08.253Z,83.40
2019-04-14T10:28:07.897Z,83.40
2019-04-14T10:29:05.885Z,83.40
2019-04-14T10:30:06.048Z,83.30
2019-04-14T10:31:12.679Z,83.40
2019-04-14T10:32:05.692Z,83.40
2019-04-14T10:33:05.899Z,83.40
2019-04-14T10:34:05.959Z,83.40
2019-04-14T10:35:05.171Z,83.40
2019-04-14T10:36:07.895Z,83.40
2019-04-14T10:37:05.974Z,83.40
2019-04-14T10:38:05.048Z,83.50
2019-04-14T10:39:07.666Z,83.60
2019-04-14T10:40:06.620Z,83.60
2019-04-14T10:41:05.814Z,83.60
2019-04-14T10:42:08.547Z,83.70
2019-04-14T10:43:05.468Z,83.70
2019-04-14T10:44:05.161Z,83.70
2019-04-14T10:45:05.216Z,83.80
2019-04-14T10:46:07.884Z,83.80
2019-04-14T10:47:06.046Z,83.80
2019-04-14T10:48:05.164Z,83.80
2019-04-14T10:49:07.799Z,84.10
2019-04-14T10:50:08.292Z,84.10
2019-04-14T10:51:07.797Z,84.30
2019-04-14T10:52:05.884Z,84.30
2019-04-14T10:53:05.964Z,84.40
2019-04-14T10:54:05.086Z,84.40
2019-04-14T10:55:05.223Z,84.40
2019-04-14T10:56:08.081Z,84.50
2019-04-14T10:57:05.061Z,84.50
2019-04-14T10:58:07.710Z,84.50
2019-04-14T10:59:08.312Z,84.50
2019-04-14T11:00:05.315Z,84.50
2019-04-14T11:01:05.369Z,84.50
2019-04-14T11:02:08.011Z,84.60
2019-04-14T11:03:05.929Z,84.60
2019-04-14T11:04:08.516Z,84.60
2019-04-14T11:05:08.130Z,84.80
2019-04-14T11:06:07.841Z,84.70
2019-04-14T11:07:05.794Z,84.70
2019-04-14T11:08:05.916Z,84.80
2019-04-14T11:09:05.955Z,84.90
2019-04-14T11:10:12.905Z,84.80
2019-04-14T11:11:05.969Z,84.80
2019-04-14T11:12:08.005Z,85.20
2019-04-14T11:13:08.645Z,85.20
2019-04-14T11:14:05.650Z,85.20
2019-04-14T11:15:05.825Z,85.20
2019-04-14T11:16:05.945Z,85.30
2019-04-14T11:17:08.504Z,85.20
2019-04-14T11:18:05.565Z,85.20
2019-04-14T11:19:05.622Z,85.20
2019-04-14T11:20:08.284Z,85.20
2019-04-14T11:21:07.754Z,85.10
2019-04-14T11:22:08.370Z,85.10
2019-04-14T11:23:05.325Z,85.10
2019-04-14T11:24:05.631Z,85.10
2019-04-14T11:25:05.966Z,85.20
2019-04-14T11:26:07.656Z,85.10
2019-04-14T11:27:05.575Z,85.10
2019-04-14T11:28:05.667Z,85.20
2019-04-14T11:29:05.991Z,85.10
2019-04-14T11:30:07.884Z,85.10
2019-04-14T11:31:05.876Z,85.10
2019-04-14T11:32:06.004Z,85.00
2019-04-14T11:33:07.763Z,85.20
2019-04-14T11:34:07.315Z,85.20
2019-04-14T11:35:07.994Z,85.20
2019-04-14T11:36:05.990Z,85.20
2019-04-14T11:37:07.527Z,85.40
2019-04-14T11:38:05.543Z,85.40
2019-04-14T11:39:08.197Z,85.40
2019-04-14T11:40:05.213Z,85.50
2019-04-14T11:41:05.352Z,85.20
2019-04-14T11:42:05.410Z,85.00
2019-04-14T11:43:05.581Z,84.80
2019-04-14T11:44:07.959Z,84.10
2019-04-14T11:45:06.136Z,84.10
2019-04-14T11:46:05.310Z,84.00
2019-04-14T11:47:07.911Z,84.10
2019-04-14T11:48:05.903Z,84.10
2019-04-14T11:49:07.520Z,84.20
2019-04-14T11:50:13.179Z,84.30
2019-04-14T11:51:05.259Z,84.30
2019-04-14T11:52:05.351Z,84.20
2019-04-14T11:53:07.893Z,84.00
2019-04-14T11:54:05.896Z,84.00
2019-04-14T11:55:05.912Z,83.80
2019-04-14T11:56:08.515Z,83.60
2019-04-14T11:57:05.455Z,83.60
2019-04-14T11:58:08.482Z,83.60
2019-04-14T11:59:05.676Z,83.60
2019-04-14T12:00:08.355Z,83.70
2019-04-14T12:01:05.289Z,83.70
2019-04-14T12:02:05.366Z,83.70
2019-04-14T12:03:07.979Z,83.60
2019-04-14T12:04:08.546Z,83.70
2019-04-14T12:05:10.569Z,83.70
2019-04-14T12:06:10.544Z,83.80
2019-04-14T12:07:05.481Z,83.80
2019-04-14T12:08:08.276Z,83.70
2019-04-14T12:09:10.316Z,83.60
2019-04-14T12:10:07.813Z,83.50
2019-04-14T12:11:05.774Z,83.50
2019-04-14T12:12:05.916Z,83.40
2019-04-14T12:13:05.203Z,83.30
2019-04-14T12:14:07.904Z,83.20
2019-04-14T12:15:08.048Z,83.20
2019-04-14T12:16:05.949Z,83.20
2019-04-14T12:17:07.731Z,83.40
2019-04-14T12:18:05.665Z,83.30
2019-04-14T12:19:05.746Z,83.40
2019-04-14T12:20:08.432Z,83.20
2019-04-14T12:21:10.691Z,83.20
2019-04-14T12:22:08.929Z,83.20
2019-04-14T12:23:05.121Z,83.30
2019-04-14T12:24:10.215Z,83.60
2019-04-14T12:25:05.108Z,83.60
2019-04-14T12:26:06.282Z,83.90
2019-04-14T12:27:07.849Z,84.40
2019-04-14T12:28:11.710Z,84.50
2019-04-14T12:29:14.544Z,84.50
2019-04-14T12:30:09.059Z,84.40
2019-04-14T12:31:08.449Z,84.40
2019-04-14T12:32:06.738Z,84.40
2019-04-14T12:33:08.402Z,84.80
2019-04-14T12:34:07.867Z,84.90
2019-04-14T12:35:08.288Z,85.00
2019-04-14T12:36:07.992Z,84.80
2019-04-14T12:37:08.571Z,84.90
2019-04-14T12:38:05.726Z,84.90
2019-04-14T12:39:05.858Z,84.80
2019-04-14T12:40:05.922Z,84.70
2019-04-14T12:41:06.484Z,84.70
2019-04-14T12:42:08.121Z,84.50
2019-04-14T12:43:05.212Z,84.60
2019-04-14T12:44:05.257Z,84.60
2019-04-14T12:45:08.032Z,84.70
2019-04-14T12:46:06.740Z,84.70
2019-04-14T12:47:05.976Z,84.70
2019-04-14T12:48:07.604Z,84.90
2019-04-14T12:49:05.512Z,84.90
2019-04-14T12:50:05.051Z,85.00
2019-04-14T12:51:05.072Z,85.10
2019-04-14T12:52:05.130Z,85.00
2019-04-14T12:53:05.394Z,85.20
2019-04-14T12:54:05.504Z,85.00
2019-04-14T12:55:08.159Z,85.00
2019-04-14T12:56:05.186Z,84.90
2019-04-14T12:57:05.366Z,85.00
2019-04-14T12:58:05.654Z,85.00
2019-04-14T12:59:05.677Z,85.00
2019-04-14T13:00:05.735Z,85.10
2019-04-14T13:01:05.853Z,85.00
2019-04-14T13:02:05.045Z,85.10
2019-04-14T13:03:05.109Z,85.00
2019-04-14T13:04:07.758Z,84.70
2019-04-14T13:05:05.962Z,84.70
2019-04-14T13:06:05.225Z,84.60
2019-04-14T13:07:05.502Z,84.50
2019-04-14T13:08:05.591Z,84.50
2019-04-14T13:09:05.918Z,84.30
2019-04-14T13:10:08.387Z,84.30
2019-04-14T13:11:05.418Z,84.40
2019-04-14T13:12:10.724Z,84.20
2019-04-14T13:13:05.643Z,84.20
2019-04-14T13:14:05.895Z,84.20
2019-04-14T13:15:07.672Z,84.20
2019-04-14T13:16:08.143Z,84.30